»·PEaware :: N7727P KGCN-KMYF

N7727P :: KGCN-KMYF

FLIGHT INFORMATION

Flight Status: Arrived
Operator: Privately registered:
United States
More flights under this callsign
Pilot: Kyle A. (14988)
Aircraft: PIPER PA-24 COMMANCHE
(PA24)
More flights by this aircraft type
Origin: KGCN Grand Canyon Natl Park
United States
Destination: KMYF Montgomery
United States
More flights between these airports :: More routes between these airports
Route: +PARKS4 PGS V208 JLI
File this flight plan on PilotEdge
Remarks:
Altitude:
(Current/Filed)
10,000ft
Speed:
(Current/Filed)
155kts
Departed: 02-Feb-18 09:32 AM
Arrived: 02-Feb-18 11:42 AM
Distance/Time
Traveled:
311nm/2:09
Distance/Time
To Go:
Arrived

Flight Plot

Page will automatically refresh every two minutes.

Flight plan parsing failed; only flown route is shown


Map Options




Map Legend


Flown Route
Filed Route
Departure Airport
Arrival Airport
Navaid (VOR, NDB)
Fix

Horizontal Profiles

Position Reports

Time Latitude Longitude Heading Altitude Ground
Speed
02-Feb-18 09:24 35.958300 -112.138371 219 6612ft 0kts
02-Feb-18 09:25 35.958299 -112.138372 219 6612ft 0kts
02-Feb-18 09:26 35.958297 -112.138374 219 6612ft 0kts
02-Feb-18 09:27 35.958295 -112.138375 219 6612ft 0kts
02-Feb-18 09:28 35.958294 -112.138377 219 6612ft 0kts
02-Feb-18 09:29 35.958292 -112.138379 219 6612ft 0kts
02-Feb-18 09:30 35.958291 -112.138380 219 6612ft 0kts
02-Feb-18 09:31 35.958289 -112.138382 219 6612ft 0kts
02-Feb-18 09:32 35.958287 -112.138384 219 6612ft 0kts
02-Feb-18 09:33 35.958286 -112.138385 219 6612ft 0kts
02-Feb-18 09:34 35.958285 -112.138387 219 6612ft 0kts
02-Feb-18 09:35 35.959127 -112.138059 42 6612ft 10kts
02-Feb-18 09:36 35.961165 -112.136457 309 6612ft 0kts
02-Feb-18 09:37 35.961270 -112.136610 310 6612ft 5kts
02-Feb-18 09:38 35.953833 -112.145366 219 6694ft 98kts
02-Feb-18 09:39 35.931953 -112.168743 220 7686ft 112kts
02-Feb-18 09:40 35.916493 -112.199049 280 8531ft 113kts
02-Feb-18 09:41 35.923263 -112.233708 284 9520ft 98kts
02-Feb-18 09:42 35.930520 -112.269129 285 10018ft 122kts
02-Feb-18 09:43 35.922912 -112.314516 252 9988ft 146kts
02-Feb-18 09:44 35.910785 -112.362058 255 9997ft 146kts
02-Feb-18 09:45 35.898664 -112.410013 255 10004ft 145kts
02-Feb-18 09:46 35.886982 -112.459087 257 9994ft 153kts
02-Feb-18 09:47 35.874927 -112.509261 255 9999ft 154kts
02-Feb-18 09:48 35.863412 -112.558483 255 9995ft 146kts
02-Feb-18 09:49 35.851946 -112.606563 255 9993ft 146kts
02-Feb-18 09:50 35.840258 -112.656012 255 9997ft 154kts
02-Feb-18 09:51 35.828492 -112.705325 255 9991ft 147kts
02-Feb-18 09:52 35.816641 -112.754821 255 10000ft 154kts
02-Feb-18 09:53 35.804692 -112.805048 255 9996ft 152kts
02-Feb-18 09:54 35.792551 -112.855129 255 9976ft 154kts
02-Feb-18 09:55 35.780419 -112.905982 255 9972ft 155kts
02-Feb-18 09:56 35.767922 -112.957628 255 9995ft 162kts
02-Feb-18 09:57 35.755617 -113.008660 255 9990ft 151kts
02-Feb-18 09:58 35.743602 -113.058319 255 9982ft 150kts
02-Feb-18 09:59 35.731698 -113.107528 255 9977ft 150kts
02-Feb-18 10:00 35.719702 -113.156906 255 9996ft 149kts
02-Feb-18 10:01 35.707745 -113.206071 255 9992ft 150kts
02-Feb-18 10:02 35.695673 -113.255540 255 9992ft 151kts
02-Feb-18 10:03 35.683549 -113.305127 255 9999ft 151kts
02-Feb-18 10:04 35.671435 -113.354699 255 9998ft 151kts
02-Feb-18 10:05 35.659227 -113.404443 255 9998ft 151kts
02-Feb-18 10:06 35.646974 -113.454336 255 9997ft 152kts
02-Feb-18 10:07 35.634953 -113.504228 256 9992ft 152kts
02-Feb-18 10:08 35.618767 -113.552164 224 9985ft 157kts
02-Feb-18 10:09 35.585934 -113.587387 226 10005ft 156kts
02-Feb-18 10:10 35.553497 -113.623074 223 9996ft 157kts
02-Feb-18 10:11 35.520848 -113.658797 224 9993ft 157kts
02-Feb-18 10:12 35.488437 -113.694702 222 9981ft 158kts
02-Feb-18 10:13 35.455343 -113.729789 224 10004ft 156kts
02-Feb-18 10:14 35.423268 -113.765709 224 10002ft 156kts
02-Feb-18 10:15 35.390499 -113.800877 223 10001ft 156kts
02-Feb-18 10:16 35.357941 -113.836535 224 10005ft 156kts
02-Feb-18 10:17 35.325306 -113.871764 223 10004ft 156kts
02-Feb-18 10:18 35.292642 -113.907461 224 10005ft 158kts
02-Feb-18 10:19 35.258881 -113.944056 223 10006ft 164kts
02-Feb-18 10:20 35.224345 -113.981473 223 10004ft 168kts
02-Feb-18 10:21 35.190048 -114.018528 223 10006ft 162kts
02-Feb-18 10:22 35.156069 -114.055176 223 10006ft 164kts
02-Feb-18 10:23 35.122788 -114.091389 222 9998ft 158kts
02-Feb-18 10:24 35.089088 -114.127505 222 9994ft 164kts
02-Feb-18 10:25 35.055934 -114.163599 224 9989ft 157kts
02-Feb-18 10:26 35.022104 -114.200046 222 9996ft 166kts
02-Feb-18 10:27 34.987041 -114.237405 224 9991ft 168kts
02-Feb-18 10:28 34.953408 -114.273943 223 9983ft 159kts
02-Feb-18 10:29 34.920275 -114.308831 223 10008ft 155kts
02-Feb-18 10:30 34.887923 -114.344024 221 9999ft 156kts
02-Feb-18 10:31 34.855198 -114.378712 223 9996ft 156kts
02-Feb-18 10:32 34.821861 -114.414795 223 9996ft 162kts
02-Feb-18 10:33 34.788487 -114.450142 223 9995ft 157kts
02-Feb-18 10:34 34.758607 -114.487890 241 9993ft 154kts
02-Feb-18 10:35 34.735892 -114.535062 241 9977ft 166kts
02-Feb-18 10:36 34.712365 -114.583073 240 9991ft 167kts
02-Feb-18 10:37 34.688017 -114.631216 240 9993ft 167kts
02-Feb-18 10:38 34.665212 -114.677708 240 9995ft 156kts
02-Feb-18 10:39 34.642736 -114.722535 240 9994ft 154kts
02-Feb-18 10:40 34.620416 -114.767284 240 9992ft 154kts
02-Feb-18 10:41 34.598112 -114.811702 240 9991ft 154kts
02-Feb-18 10:42 34.575891 -114.856199 240 9992ft 154kts
02-Feb-18 10:43 34.552704 -114.902752 240 10001ft 165kts
02-Feb-18 10:44 34.529490 -114.948524 240 10002ft 156kts
02-Feb-18 10:45 34.506409 -114.994425 240 10005ft 161kts
02-Feb-18 10:46 34.482719 -115.041805 239 10015ft 166kts
02-Feb-18 10:47 34.459587 -115.087767 239 10024ft 156kts
02-Feb-18 10:48 34.436913 -115.132585 239 10022ft 155kts
02-Feb-18 10:49 34.414534 -115.177141 239 10022ft 155kts
02-Feb-18 10:50 34.390935 -115.223572 239 10024ft 166kts
02-Feb-18 10:51 34.371169 -115.262921 239 10003ft 163kts
02-Feb-18 10:52 34.343686 -115.316721 239 10005ft 160kts
02-Feb-18 10:53 34.320805 -115.362166 238 10005ft 156kts
02-Feb-18 10:54 34.297967 -115.406740 238 10026ft 155kts
02-Feb-18 10:55 34.279129 -115.443959 238 10020ft 156kts
02-Feb-18 10:56 34.256332 -115.488821 238 9998ft 156kts
02-Feb-18 10:58 34.229711 -115.540777 238 10000ft 155kts
02-Feb-18 10:58 34.210890 -115.577882 237 10003ft 155kts
02-Feb-18 10:59 34.188033 -115.622662 237 9999ft 156kts
02-Feb-18 11:00 34.164326 -115.668641 237 10011ft 168kts
02-Feb-18 11:01 34.140479 -115.715043 237 10004ft 158kts
02-Feb-18 11:02 34.117009 -115.761159 237 10011ft 165kts
02-Feb-18 11:03 34.081980 -115.795511 212 10012ft 166kts
02-Feb-18 11:04 34.043385 -115.825574 212 10010ft 167kts
02-Feb-18 11:05 34.005637 -115.856390 214 9999ft 162kts
02-Feb-18 11:06 33.968528 -115.886511 212 9996ft 162kts
02-Feb-18 11:07 33.931411 -115.916348 213 10028ft 157kts
02-Feb-18 11:08 33.894609 -115.946509 213 10025ft 164kts
02-Feb-18 11:09 33.857037 -115.976271 213 10012ft 161kts
02-Feb-18 11:10 33.820439 -116.006199 213 9998ft 157kts
02-Feb-18 11:11 33.783639 -116.035387 212 9980ft 161kts
02-Feb-18 11:12 33.747057 -116.064998 213 9975ft 156kts
02-Feb-18 11:13 33.710821 -116.094070 212 9955ft 156kts
02-Feb-18 11:14 33.674367 -116.123236 213 9955ft 160kts
02-Feb-18 11:15 33.636745 -116.153484 212 9961ft 167kts
02-Feb-18 11:16 33.599559 -116.184773 215 9957ft 162kts
02-Feb-18 11:17 33.564147 -116.216614 215 9953ft 157kts
02-Feb-18 11:18 33.528741 -116.247519 214 9955ft 157kts
02-Feb-18 11:19 33.493022 -116.278932 215 9959ft 162kts
02-Feb-18 11:20 33.456065 -116.311135 215 9968ft 169kts
02-Feb-18 11:21 33.418823 -116.343840 215 9966ft 165kts
02-Feb-18 11:22 33.381557 -116.376353 214 9969ft 169kts
02-Feb-18 11:23 33.343721 -116.409368 215 9969ft 170kts
02-Feb-18 11:24 33.306055 -116.442335 214 9967ft 170kts
02-Feb-18 11:25 33.268272 -116.475116 214 9962ft 170kts
02-Feb-18 11:26 33.230595 -116.507899 214 9950ft 168kts
02-Feb-18 11:27 33.192848 -116.540588 214 9945ft 170kts
02-Feb-18 11:28 33.156024 -116.572653 214 10004ft 160kts
02-Feb-18 11:29 33.126566 -116.611310 234 9996ft 158kts
02-Feb-18 11:30 33.100944 -116.654010 233 9994ft 158kts
02-Feb-18 11:31 33.075593 -116.697366 234 9996ft 160kts
02-Feb-18 11:32 33.049656 -116.741586 233 10004ft 167kts
02-Feb-18 11:33 33.023023 -116.787167 233 10024ft 169kts
02-Feb-18 11:34 32.982260 -116.811464 191 9064ft 174kts
02-Feb-18 11:35 32.941847 -116.822992 191 8106ft 168kts
02-Feb-18 11:36 32.896000 -116.834869 189 7167ft 169kts
02-Feb-18 11:37 32.851036 -116.846149 190 6078ft 162kts
02-Feb-18 11:38 32.807957 -116.857186 189 5161ft 156kts
02-Feb-18 11:39 32.765533 -116.867748 190 4494ft 156kts
02-Feb-18 11:40 32.724862 -116.879662 215 3789ft 143kts
02-Feb-18 11:41 32.724474 -116.926374 280 3818ft 152kts
02-Feb-18 11:42 32.739187 -116.972763 310 3824ft 153kts
02-Feb-18 11:43 32.764419 -117.013248 298 3797ft 144kts
02-Feb-18 11:44 32.782487 -117.052800 296 2817ft 114kts
02-Feb-18 11:45 32.794802 -117.084664 292 1865ft 96kts
02-Feb-18 11:46 32.805141 -117.111541 292 1132ft 82kts
02-Feb-18 11:47 32.814241 -117.134737 293 442ft 68kts
02-Feb-18 11:48 32.815875 -117.140786 247 430ft 0kts
02-Feb-18 11:49 32.815483 -117.141852 246 430ft 21kts
02-Feb-18 11:50 32.814048 -117.139940 115 430ft 14kts
02-Feb-18 11:51 32.812398 -117.137460 205 430ft 4kts
02-Feb-18 11:52 32.811092 -117.138546 267 430ft 5kts
02-Feb-18 11:53 32.810960 -117.139258 0 430ft 0kts
02-Feb-18 11:54 32.810961 -117.139258 0 430ft 0kts
02-Feb-18 11:55 32.810961 -117.139258 0 430ft 0kts
02-Feb-18 11:56 32.810961 -117.139258 0 430ft 0kts
02-Feb-18 11:57 32.810961 -117.139258 0 430ft 0kts
02-Feb-18 11:58 32.810961 -117.139258 0 430ft 0kts
02-Feb-18 11:59 32.810961 -117.139258 0 430ft 0kts
02-Feb-18 12:00 32.810961 -117.139258 0 430ft 0kts
02-Feb-18 12:01 32.810961 -117.139258 0 430ft 0kts
02-Feb-18 12:02 32.810961 -117.139258 0 430ft 0kts

Navigation Log

Ident Type
Flight plan parsing failed, navigation log unavailable